Flight Track Log - Related Links

Times and Time Zones

All times are in EDT time to prevent confusion due to time zone crossing. See the FLG3713 flight status page for this flight to view local times or setup timezone preferences in your user account.

Time Position Orientation Groundspeed Altitude Reporting Facility
EDT Latitude Longitude Course Direction KTS MPH feet Rate Location/Type
Tue 08:16:56 PM 39.0333 -84.6667 123° Southeast 166 191 1,600  Level Cincinnati TRACON
Tue 08:17:32 PM 39.0167 -84.6333 123° Southeast 194 223 2,800 2,000 Climbing Cincinnati TRACON
Tue 08:18:32 PM 39.0000 -84.5500 104° East 280 322 4,800 2,348 Climbing Cincinnati TRACON
Tue 08:19:50 PM 38.9700 -84.4258 107° East 298 343 8,200 2,657 Climbing Indianapolis Center
Tue 08:20:52 PM 38.9464 -84.3283 107° East 304 350 11,000 1,887 Climbing Indianapolis Center
Tue 08:21:54 PM 38.9183 -84.2214 109° East 317 365 12,100 976 Climbing Indianapolis Center
Tue 08:22:55 PM 38.8889 -84.0975 107° East 360 414 13,000 1,317 Climbing Indianapolis Center
Tue 08:23:57 PM 38.8661 -83.9372 100° East 380 437 14,800 1,645 Climbing Indianapolis Center
Tue 08:24:59 PM 38.8847 -83.8061 80° East 377 434 16,400 1,452 Climbing Indianapolis Center
Tue 08:26:01 PM 38.8753 -83.6736 95° East 379 436 17,800 1,171 Climbing Indianapolis Center
Tue 08:27:02 PM 38.8539 -83.5367 101° East 389 448 18,800 976 Climbing Indianapolis Center
Tue 08:28:04 PM 38.8314 -83.3961 102° East 401 461 19,800 823 Climbing Indianapolis Center
Tue 08:29:06 PM 38.8086 -83.2522 101° East 411 473 20,500 629 Climbing Indianapolis Center
Tue 08:30:08 PM 38.7828 -83.0936 102° East 425 489 21,100 532 Climbing Indianapolis Center
Tue 08:31:10 PM 38.7586 -82.9408 101° East 435 501 21,600 537 Climbing Indianapolis Center
Tue 08:32:11 PM 38.7281 -82.7561 102° East 442 509 22,200 585 Climbing Indianapolis Center
Tue 08:33:13 PM 38.7014 -82.6003 102° East 446 513 22,800 532 Climbing Indianapolis Center
Tue 08:34:15 PM 38.6758 -82.4444 102° East 448 516 23,300 488 Climbing Indianapolis Center
Tue 08:35:16 PM 38.6500 -82.2894 102° East 447 514 23,800 488 Climbing Indianapolis Center
Tue 08:36:18 PM 38.6233 -82.1333 102° East 449 517 24,300 484 Climbing Indianapolis Center
Tue 08:37:20 PM 38.5967 -81.9778 102° East 450 518 24,800 484 Climbing Indianapolis Center
Tue 08:38:22 PM 38.5700 -81.8244 102° East 446 513 25,300 537 Climbing Indianapolis Center
Tue 08:39:23 PM 38.5369 -81.6417 103° East 446 513 25,900 537 Climbing Indianapolis Center
Tue 08:40:25 PM 38.5106 -81.4886 102° East 450 518 26,400 488 Climbing Indianapolis Center
Tue 08:41:26 PM 38.4844 -81.3375 102° East 444 511 26,900 488 Climbing Indianapolis Center
Tue 08:42:28 PM 38.4511 -81.1864 106° East 448 516 27,400 484 Climbing Indianapolis Center
Tue 08:43:30 PM 38.3956 -81.0453 117° Southeast 447 514 27,900 488 Climbing Indianapolis Center
Tue 08:44:31 PM 38.3411 -80.9036 116° Southeast 447 514 28,400 537 Climbing Indianapolis Center
Tue 08:45:33 PM 38.3256 -80.7122 96° East 454 522 29,000 293 Climbing Indianapolis Center
Tue 08:46:34 PM 38.3158 -80.5533 94° East 453 521 29,000  Level Indianapolis Center
Tue 08:47:36 PM 38.3378 -80.3939 80° East 455 524 29,000  Level Indianapolis Center
Tue 08:48:34 PM 38.3586 -80.2389 80° East 451 519 29,000  Level Washington Center
Tue 08:49:33 PM 38.3794 -80.0733 81° East 464 534 29,000  Level Washington Center
Tue 08:50:34 PM 38.3994 -79.9236 80° East 469 540 29,000  Level Washington Center
Tue 08:51:33 PM 38.4200 -79.7603 81° East 469 540 29,000  Level Washington Center
Tue 08:52:34 PM 38.4403 -79.5919 81° East 469 540 29,000  Level Washington Center
Tue 08:53:32 PM 38.4622 -79.4286 80° East 469 540 29,000  Level Washington Center
Tue 08:54:32 PM 38.4847 -79.2467 81° East 469 540 29,000 -350 Level Washington Center
Tue 08:55:32 PM 38.5064 -79.0806 80° East 469 540 28,300 -496 Descending Washington Center
Tue 08:56:33 PM 38.5236 -78.9117 83° East 469 540 28,000 -446 Descending Washington Center
Tue 08:57:33 PM 38.5406 -78.7425 83° East 474 545 27,400 -492 Descending Washington Center
Tue 08:58:35 PM 38.5594 -78.5814 81° East 474 545 27,000 -1,109 Descending Washington Center
Tue 08:59:32 PM 38.5781 -78.4172 82° East 467 537 25,200 -1,881 Descending Washington Center
Tue 09:00:33 PM 38.5964 -78.2533 82° East 467 537 23,300 -1,884 Descending Washington Center
Tue 09:01:33 PM 38.6144 -78.0919 82° East 462 532 21,400 -1,884 Descending Washington Center
Tue 09:02:34 PM 38.6319 -77.9358 82° East 456 525 19,500 -1,200 Descending Washington Center
Tue 09:03:33 PM 38.6453 -77.7847 84° East 442 509 19,000 -252 Descending Washington Center
Tue 09:04:33 PM 38.6519 -77.6439 86° East 418 481 19,000 -541 Level Washington Center
Tue 09:05:35 PM 38.6603 -77.5139 85° East 390 449 17,900 -1,462 Descending Washington Center
Tue 09:06:32 PM 38.6667 -77.3839 86° East 367 422 16,100 -1,128 Descending Washington Center
Tue 09:07:32 PM 38.6744 -77.2617 85° East 355 409 15,700 -1,200 Descending Washington Center
Tue 09:08:32 PM 38.6825 -77.1369 85° East 345 397 13,700 -1,785 Descending Washington Center
Tue 09:09:33 PM 38.6881 -77.0200 86° East 345 397 12,100 -1,438 Descending Washington Center
Tue 09:10:33 PM 38.6933 -76.9136 86° East 325 374 10,800 -1,289 Descending Washington Center
Tue 09:11:34 PM 38.6986 -76.8125 86° East 303 349 9,500 -1,234 Descending Washington Center
Tue 09:14:02 PM 38.7667 -76.5833 69° East 277 319 6,500 -1,163 Descending Potomac TRACON
Tue 09:14:50 PM 38.8167 -76.5500 27° Northeast 260 299 5,700 -947 Descending Potomac TRACON
Tue 09:15:56 PM 38.8833 -76.5333 11° North 244 281 4,700 -850 Descending Potomac TRACON
Tue 09:16:50 PM 38.9500 -76.5333 360° North 244 281 4,000 -526 Descending Potomac TRACON
Tue 09:17:50 PM 39.0167 -76.5500 349° North 217 250 3,700 -800 Descending Potomac TRACON
Tue 09:18:50 PM 39.0667 -76.5833 333° Northwest 207 238 2,400 -1,105 Descending Potomac TRACON
Tue 09:19:44 PM 39.1000 -76.6000 339° North 179 206 1,600 -789 Descending Potomac TRACON
Tue 09:20:44 PM 39.1333 -76.6333 322° Northwest 126 145 900 -700 Descending Potomac TRACON
Tue 09:22:00 PM 39.1667 -76.6667 339° North  Level FlightAware Approximate
Tue 09:29:00 PM 39.1754 -76.6683 339° North  Level Estimated
Tue 09:30:00 PM 39.1754 -76.6683 339° North  Level Estimated

Login

Don't have an account? Register now (free) for customized features, flight alerts, and more!